createdAt,value
2023-03-17T00:01:54.065Z,99.90
2023-03-17T00:04:22.889Z,99.90
2023-03-17T00:06:49.757Z,99.90
2023-03-17T00:09:17.883Z,99.90
2023-03-17T00:11:45.729Z,99.90
2023-03-17T00:14:12.986Z,99.90
2023-03-17T00:16:45.217Z,99.90
2023-03-17T00:19:23.593Z,99.90
2023-03-17T00:21:50.734Z,99.90
2023-03-17T00:24:17.660Z,99.90
2023-03-17T00:26:44.559Z,99.90
2023-03-17T00:29:11.369Z,99.90
2023-03-17T00:31:39.604Z,99.90
2023-03-17T00:34:08.145Z,99.90
2023-03-17T00:36:35.777Z,99.90
2023-03-17T00:39:03.326Z,99.90
2023-03-17T00:41:30.273Z,99.90
2023-03-17T00:43:57.429Z,99.90
2023-03-17T00:46:36.025Z,99.90
2023-03-17T00:49:10.559Z,99.90
2023-03-17T00:51:37.509Z,99.90
2023-03-17T00:54:04.498Z,99.90
2023-03-17T00:56:32.026Z,99.90
2023-03-17T00:58:58.848Z,99.90
2023-03-17T01:01:25.686Z,99.90
2023-03-17T01:03:52.828Z,99.90
2023-03-17T01:06:20.233Z,99.90
2023-03-17T01:08:47.459Z,99.90
2023-03-17T01:11:18.706Z,99.90
2023-03-17T01:13:45.880Z,99.90
2023-03-17T01:16:12.968Z,99.90
2023-03-17T01:18:40.634Z,99.90
2023-03-17T01:21:07.962Z,99.90
2023-03-17T01:23:34.883Z,99.90
2023-03-17T01:26:01.757Z,99.90
2023-03-17T01:28:28.983Z,99.90
2023-03-17T01:30:56.795Z,99.90
2023-03-17T01:33:23.884Z,99.90
2023-03-17T01:35:51.292Z,99.90
2023-03-17T01:38:18.793Z,99.90
2023-03-17T01:40:49.739Z,99.90
2023-03-17T01:43:30.760Z,99.90
2023-03-17T01:46:16.571Z,99.90
2023-03-17T01:48:55.429Z,99.90
2023-03-17T01:51:42.982Z,99.90
2023-03-17T01:54:15.272Z,99.90
2023-03-17T01:56:45.275Z,99.90
2023-03-17T01:59:19.204Z,99.90
2023-03-17T02:01:49.697Z,99.90
2023-03-17T02:04:19.463Z,99.90
2023-03-17T02:06:57.578Z,99.90
2023-03-17T02:09:27.111Z,99.90
2023-03-17T02:11:55.631Z,99.90
2023-03-17T02:14:22.844Z,99.90
2023-03-17T02:16:49.880Z,99.90
2023-03-17T02:19:17.024Z,99.90
2023-03-17T02:21:54.049Z,99.90
2023-03-17T02:24:23.651Z,99.90
2023-03-17T02:26:51.706Z,99.90
2023-03-17T02:29:21.186Z,99.90
2023-03-17T02:31:48.179Z,99.90
2023-03-17T02:34:15.834Z,99.90
2023-03-17T02:36:42.903Z,99.90
2023-03-17T02:39:09.907Z,99.90
2023-03-17T02:41:37.476Z,99.90
2023-03-17T02:44:04.521Z,99.90
2023-03-17T02:46:31.682Z,99.90
2023-03-17T02:48:58.865Z,99.90
2023-03-17T02:51:25.689Z,99.90
2023-03-17T02:53:52.568Z,99.90
2023-03-17T02:56:19.399Z,99.90
2023-03-17T02:58:46.478Z,99.90
2023-03-17T03:01:13.357Z,99.90
2023-03-17T03:03:40.324Z,99.90
2023-03-17T03:06:07.525Z,99.90
2023-03-17T03:08:34.462Z,99.90
2023-03-17T03:11:02.583Z,99.90
2023-03-17T03:13:29.597Z,99.90
2023-03-17T03:15:56.531Z,99.90
2023-03-17T03:18:23.590Z,99.90
2023-03-17T03:20:50.806Z,99.90
2023-03-17T03:23:17.711Z,99.90
2023-03-17T03:25:44.609Z,99.90
2023-03-17T03:28:11.460Z,99.90
2023-03-17T03:30:39.050Z,99.90
2023-03-17T03:33:06.637Z,99.90
2023-03-17T03:35:34.514Z,99.90
2023-03-17T03:38:02.173Z,99.90
2023-03-17T03:40:29.340Z,99.90
2023-03-17T03:42:56.349Z,99.90
2023-03-17T03:45:23.585Z,99.90
2023-03-17T03:47:50.616Z,99.90
2023-03-17T03:50:17.741Z,99.90
2023-03-17T03:52:44.672Z,99.90
2023-03-17T03:55:11.589Z,99.90
2023-03-17T03:57:38.771Z,99.90
2023-03-17T04:00:07.868Z,99.90
2023-03-17T04:02:34.847Z,99.90
2023-03-17T04:05:02.006Z,99.90
2023-03-17T04:07:29.532Z,99.90
2023-03-17T04:09:56.913Z,99.90
2023-03-17T04:12:23.798Z,99.90
2023-03-17T04:14:50.586Z,99.90
2023-03-17T04:17:18.013Z,99.90
2023-03-17T04:19:44.790Z,99.90
2023-03-17T04:22:13.555Z,99.90
2023-03-17T04:24:41.005Z,99.90
2023-03-17T04:27:08.064Z,99.90
2023-03-17T04:29:35.074Z,99.90
2023-03-17T04:32:02.692Z,99.90
2023-03-17T04:34:30.007Z,99.90
2023-03-17T04:36:57.526Z,99.90
2023-03-17T04:39:24.530Z,99.90
2023-03-17T04:41:51.443Z,99.90
2023-03-17T04:44:18.229Z,99.90
2023-03-17T04:46:45.082Z,99.90
2023-03-17T04:49:12.410Z,99.90
2023-03-17T04:51:39.244Z,99.90
2023-03-17T04:54:06.948Z,99.90
2023-03-17T04:56:34.202Z,99.90
2023-03-17T04:59:00.981Z,99.90
2023-03-17T05:01:27.792Z,99.90
2023-03-17T05:03:54.728Z,99.90
2023-03-17T05:06:21.804Z,99.90
2023-03-17T05:08:48.803Z,99.90
2023-03-17T05:11:15.986Z,99.90
2023-03-17T05:13:43.062Z,99.90
2023-03-17T05:16:10.465Z,99.90
2023-03-17T05:18:38.117Z,99.90
2023-03-17T05:21:06.393Z,99.90
2023-03-17T05:23:33.771Z,99.90
2023-03-17T05:26:00.889Z,99.90
2023-03-17T05:28:27.863Z,99.90
2023-03-17T05:30:55.478Z,99.90
2023-03-17T05:33:23.082Z,99.90
2023-03-17T05:35:50.279Z,99.90
2023-03-17T05:38:17.357Z,99.90
2023-03-17T05:40:44.660Z,99.90
2023-03-17T05:43:11.631Z,99.90
2023-03-17T05:45:39.220Z,99.90
2023-03-17T05:48:06.495Z,99.90
2023-03-17T05:50:33.558Z,99.90
2023-03-17T05:53:00.988Z,99.90
2023-03-17T05:55:27.882Z,99.90
2023-03-17T05:57:54.725Z,99.90
2023-03-17T06:00:21.941Z,99.90
2023-03-17T06:02:48.991Z,99.90
2023-03-17T06:05:16.375Z,99.90
2023-03-17T06:07:52.901Z,99.90
2023-03-17T06:10:24.663Z,99.90
2023-03-17T06:12:51.697Z,99.90
2023-03-17T06:15:19.206Z,99.90
2023-03-17T06:17:46.258Z,99.90
2023-03-17T06:20:14.216Z,99.90
2023-03-17T06:22:55.217Z,99.90
2023-03-17T06:25:28.063Z,99.90
2023-03-17T06:27:56.313Z,99.90
2023-03-17T06:30:23.162Z,99.90
2023-03-17T06:32:50.355Z,99.90
2023-03-17T06:35:18.120Z,99.90
2023-03-17T06:37:45.125Z,99.90
2023-03-17T06:40:12.708Z,99.90
2023-03-17T06:42:39.624Z,99.90
2023-03-17T06:45:07.118Z,99.90
2023-03-17T06:47:35.399Z,99.90
2023-03-17T06:50:02.309Z,99.90
2023-03-17T06:52:29.162Z,99.90
2023-03-17T06:54:55.984Z,99.90
2023-03-17T06:57:22.876Z,99.90
2023-03-17T06:59:49.721Z,99.90
2023-03-17T07:02:16.713Z,99.90
2023-03-17T07:04:43.649Z,99.90
2023-03-17T07:07:10.910Z,99.90
2023-03-17T07:09:37.852Z,99.90
2023-03-17T07:12:05.110Z,99.90
2023-03-17T07:14:36.690Z,99.90
2023-03-17T07:17:04.951Z,99.90
2023-03-17T07:19:32.953Z,99.90
2023-03-17T07:21:59.787Z,99.90
2023-03-17T07:24:27.055Z,99.90
2023-03-17T07:26:53.985Z,99.90
2023-03-17T07:29:22.714Z,99.90
2023-03-17T07:31:50.049Z,99.90
2023-03-17T07:34:17.836Z,99.90
2023-03-17T07:36:44.761Z,99.90
2023-03-17T07:39:12.162Z,99.90
2023-03-17T07:41:39.316Z,99.90
2023-03-17T07:44:06.339Z,99.90
2023-03-17T07:46:33.282Z,99.90
2023-03-17T07:49:00.146Z,99.90
2023-03-17T07:51:28.108Z,99.90
2023-03-17T07:54:03.867Z,99.90
2023-03-17T07:56:32.521Z,99.90
2023-03-17T07:59:00.139Z,99.90
2023-03-17T08:01:28.507Z,99.90
2023-03-17T08:03:56.573Z,99.90
2023-03-17T08:06:27.279Z,99.90
2023-03-17T08:08:54.820Z,99.90
2023-03-17T08:11:23.404Z,99.90
2023-03-17T08:13:50.275Z,99.90
2023-03-17T08:16:17.318Z,99.90
2023-03-17T08:18:44.439Z,99.90
2023-03-17T08:21:11.362Z,99.90
2023-03-17T08:23:38.193Z,99.90
2023-03-17T08:26:05.581Z,99.90
2023-03-17T08:28:32.982Z,99.90
2023-03-17T08:31:12.637Z,99.90
2023-03-17T08:33:45.411Z,99.90
2023-03-17T08:36:12.873Z,99.90
2023-03-17T08:38:41.511Z,99.90
2023-03-17T08:41:12.278Z,99.90
2023-03-17T08:43:40.104Z,99.90
2023-03-17T08:46:17.091Z,99.90
2023-03-17T08:48:46.755Z,99.90
2023-03-17T08:51:17.737Z,99.90
2023-03-17T08:53:45.783Z,99.90
2023-03-17T08:56:14.112Z,99.90
2023-03-17T08:58:42.684Z,99.90
2023-03-17T09:01:10.863Z,99.90
2023-03-17T09:03:40.808Z,99.90
2023-03-17T09:06:09.562Z,99.90
2023-03-17T09:08:42.334Z,99.90
2023-03-17T09:11:10.707Z,99.90
2023-03-17T09:13:39.113Z,99.90
2023-03-17T09:16:08.889Z,99.90
2023-03-17T09:18:35.941Z,99.90
2023-03-17T09:21:03.715Z,99.90
2023-03-17T09:23:31.183Z,99.90
2023-03-17T09:25:58.405Z,99.90
2023-03-17T09:28:25.600Z,99.90
2023-03-17T09:30:57.202Z,99.90
2023-03-17T09:33:24.073Z,99.90
2023-03-17T09:35:52.735Z,99.90
2023-03-17T09:38:19.793Z,99.80
2023-03-17T09:41:20.576Z,99.60
2023-03-17T09:44:25.129Z,99.80
2023-03-17T09:47:04.238Z,99.70
2023-03-17T09:49:51.677Z,98.90
2023-03-17T09:52:30.583Z,98.80
2023-03-17T09:54:58.458Z,99.40
2023-03-17T09:57:40.003Z,99.70
2023-03-17T10:00:20.785Z,98.90
2023-03-17T10:02:47.611Z,98.60
2023-03-17T10:05:21.980Z,98.20
2023-03-17T10:08:27.008Z,98.90
2023-03-17T10:11:25.001Z,98.40
2023-03-17T10:13:55.030Z,98.40
2023-03-17T10:16:46.379Z,98.90
2023-03-17T10:19:38.266Z,99.30
2023-03-17T10:22:37.943Z,98.10
2023-03-17T10:25:14.062Z,97.40
2023-03-17T10:27:42.613Z,96.90
2023-03-17T10:30:20.569Z,97.70
2023-03-17T10:32:48.307Z,97.20
2023-03-17T10:35:16.596Z,97.60
2023-03-17T10:37:46.066Z,97.60
2023-03-17T10:40:28.663Z,97.50
2023-03-17T10:43:03.832Z,98.00
2023-03-17T10:45:33.298Z,97.60
2023-03-17T10:48:02.639Z,97.10
2023-03-17T10:50:32.686Z,97.20
2023-03-17T10:53:10.824Z,96.80
2023-03-17T10:55:44.768Z,96.50
2023-03-17T10:58:37.239Z,96.70
2023-03-17T11:01:29.165Z,95.90
2023-03-17T11:03:57.489Z,95.50
2023-03-17T11:06:38.506Z,96.20
2023-03-17T11:09:09.642Z,95.40
2023-03-17T11:11:44.945Z,95.50
2023-03-17T11:14:14.536Z,93.90
2023-03-17T11:17:13.534Z,94.90
2023-03-17T11:20:24.605Z,94.20
2023-03-17T11:23:04.860Z,94.00
2023-03-17T11:25:36.163Z,93.80
2023-03-17T11:28:09.682Z,93.20
2023-03-17T11:31:18.107Z,91.30
2023-03-17T11:34:05.599Z,91.40
2023-03-17T11:36:57.822Z,90.60
2023-03-17T11:39:56.374Z,90.10
2023-03-17T11:42:44.349Z,89.70
2023-03-17T11:45:27.402Z,86.60
2023-03-17T11:48:27.706Z,86.60
2023-03-17T11:51:16.314Z,85.80
2023-03-17T11:53:52.014Z,82.60
2023-03-17T11:56:21.112Z,81.60
2023-03-17T11:58:56.853Z,79.80
2023-03-17T12:01:32.413Z,79.40
2023-03-17T12:04:16.465Z,80.00
2023-03-17T12:06:48.547Z,80.90
2023-03-17T12:09:45.704Z,82.20
2023-03-17T12:12:16.263Z,80.60
2023-03-17T12:14:48.765Z,80.40
2023-03-17T12:17:16.208Z,81.70
2023-03-17T12:19:55.977Z,82.10
2023-03-17T12:22:34.416Z,81.50
2023-03-17T12:25:21.434Z,78.50
2023-03-17T12:28:11.094Z,80.50
2023-03-17T12:30:54.342Z,80.00
2023-03-17T12:33:58.897Z,79.80
2023-03-17T12:36:27.337Z,78.90
2023-03-17T12:39:05.527Z,81.60
2023-03-17T12:41:53.862Z,82.20
2023-03-17T12:44:39.439Z,82.80
2023-03-17T12:47:30.621Z,82.10
2023-03-17T12:50:12.706Z,81.20
2023-03-17T12:53:03.638Z,82.80
2023-03-17T12:55:33.829Z,83.80
2023-03-17T12:58:04.616Z,84.20
2023-03-17T13:00:33.940Z,84.60
2023-03-17T13:03:21.211Z,85.50
2023-03-17T13:05:52.763Z,84.70
2023-03-17T13:08:28.481Z,85.80
2023-03-17T13:12:12.676Z,86.90
2023-03-17T13:14:43.579Z,86.10
2023-03-17T13:17:31.701Z,85.10
2023-03-17T13:20:07.782Z,85.80
2023-03-17T13:22:40.994Z,84.00
2023-03-17T13:25:33.545Z,82.10
2023-03-17T13:28:12.887Z,80.90
2023-03-17T13:30:40.069Z,79.40
2023-03-17T13:33:09.978Z,79.70
2023-03-17T13:35:43.044Z,80.60
2023-03-17T13:38:34.873Z,81.20
2023-03-17T13:41:17.483Z,79.40
2023-03-17T13:43:52.412Z,78.00
2023-03-17T13:46:25.239Z,79.10
2023-03-17T13:48:53.445Z,79.50
2023-03-17T13:51:27.308Z,78.90
2023-03-17T13:54:07.712Z,81.90
2023-03-17T13:56:36.328Z,82.40
2023-03-17T13:59:03.883Z,82.90
2023-03-17T14:01:38.997Z,81.70
2023-03-17T14:04:12.415Z,81.10
2023-03-17T14:06:40.688Z,81.90
2023-03-17T14:09:16.495Z,81.70
2023-03-17T14:11:47.299Z,81.70
2023-03-17T14:14:36.459Z,81.50
2023-03-17T14:17:28.122Z,81.80
2023-03-17T14:20:13.409Z,82.10
2023-03-17T14:22:45.418Z,83.80
2023-03-17T14:25:18.992Z,85.50
2023-03-17T14:27:49.142Z,84.40
2023-03-17T14:30:25.642Z,84.60
2023-03-17T14:32:58.827Z,86.00
2023-03-17T14:35:30.961Z,87.10
2023-03-17T14:37:58.467Z,85.80
2023-03-17T14:40:28.376Z,85.80
2023-03-17T14:42:56.291Z,86.10
2023-03-17T14:45:43.146Z,86.50
2023-03-17T14:48:14.798Z,86.90
2023-03-17T14:50:51.480Z,84.90
2023-03-17T14:53:19.438Z,83.00
2023-03-17T14:55:47.114Z,83.70
2023-03-17T14:58:26.688Z,83.70
2023-03-17T15:01:05.668Z,84.90
2023-03-17T15:03:38.323Z,85.10
2023-03-17T15:06:30.442Z,85.10
2023-03-17T15:09:16.967Z,85.40
2023-03-17T15:11:45.183Z,85.90
2023-03-17T15:14:33.721Z,86.70
2023-03-17T15:17:04.409Z,87.40
2023-03-17T15:19:36.300Z,87.60
2023-03-17T15:22:21.526Z,87.10
2023-03-17T15:25:22.197Z,87.40
2023-03-17T15:27:49.196Z,89.40
2023-03-17T15:30:17.262Z,88.60
2023-03-17T15:32:44.744Z,88.00
2023-03-17T15:35:13.154Z,88.90
2023-03-17T15:37:40.521Z,89.20
2023-03-17T15:40:09.395Z,89.40
2023-03-17T15:42:40.051Z,89.50
2023-03-17T15:45:07.873Z,89.30
2023-03-17T15:47:39.811Z,88.30
2023-03-17T15:50:29.497Z,88.40
2023-03-17T15:52:57.306Z,90.30
2023-03-17T15:55:30.688Z,90.70
2023-03-17T15:57:58.677Z,91.00
2023-03-17T16:00:29.503Z,91.20
2023-03-17T16:03:04.623Z,91.10
2023-03-17T16:05:33.594Z,90.80
2023-03-17T16:08:01.511Z,90.90
2023-03-17T16:10:32.928Z,91.00
2023-03-17T16:13:00.329Z,91.20
2023-03-17T16:15:31.370Z,91.80
2023-03-17T16:18:04.566Z,92.20
2023-03-17T16:20:42.818Z,92.60
2023-03-17T16:23:19.206Z,92.80
2023-03-17T16:25:46.400Z,92.80
2023-03-17T16:28:17.851Z,93.00
2023-03-17T16:30:46.640Z,93.90
2023-03-17T16:33:25.946Z,94.50
2023-03-17T16:35:57.448Z,95.40
2023-03-17T16:38:27.247Z,95.20
2023-03-17T16:40:58.346Z,95.60
2023-03-17T16:43:35.612Z,96.10
2023-03-17T16:46:03.594Z,96.30
2023-03-17T16:48:31.182Z,96.60
2023-03-17T16:50:58.340Z,97.20
2023-03-17T16:53:25.686Z,97.70
2023-03-17T16:55:54.257Z,98.10
2023-03-17T16:58:41.760Z,98.40
2023-03-17T17:01:24.937Z,98.80
2023-03-17T17:03:52.243Z,99.00
2023-03-17T17:06:20.867Z,98.90
2023-03-17T17:08:48.626Z,98.60
2023-03-17T17:11:16.924Z,98.60
2023-03-17T17:13:46.135Z,98.80
2023-03-17T17:16:31.508Z,98.80
2023-03-17T17:18:59.334Z,99.90
2023-03-17T17:21:27.285Z,99.90
2023-03-17T17:24:29.291Z,99.90
2023-03-17T17:26:56.133Z,99.90
2023-03-17T17:29:23.042Z,99.90
2023-03-17T17:31:49.900Z,99.90
2023-03-17T17:34:16.860Z,99.90
2023-03-17T17:36:47.079Z,99.90
2023-03-17T17:39:14.365Z,99.90
2023-03-17T17:41:43.873Z,99.90
2023-03-17T17:44:31.003Z,99.90
2023-03-17T17:46:58.388Z,99.90
2023-03-17T17:49:25.336Z,99.90
2023-03-17T17:51:52.285Z,99.90
2023-03-17T17:54:19.163Z,99.90
2023-03-17T17:56:47.123Z,99.90
2023-03-17T17:59:15.024Z,99.90
2023-03-17T18:01:42.097Z,99.90
2023-03-17T18:04:09.823Z,99.90
2023-03-17T18:06:36.792Z,99.90
2023-03-17T18:09:05.311Z,99.90
2023-03-17T18:11:32.466Z,99.90
2023-03-17T18:13:59.760Z,99.90
2023-03-17T18:16:26.710Z,99.90
2023-03-17T18:18:53.583Z,99.90
2023-03-17T18:21:20.611Z,99.90
2023-03-17T18:23:48.660Z,99.90
2023-03-17T18:26:17.758Z,99.90
2023-03-17T18:28:44.929Z,99.90
2023-03-17T18:31:40.843Z,99.90
2023-03-17T18:34:21.812Z,99.90
2023-03-17T18:36:49.370Z,99.90
2023-03-17T18:39:16.861Z,99.90
2023-03-17T18:41:44.640Z,99.90
2023-03-17T18:44:11.898Z,99.90
2023-03-17T18:46:38.897Z,99.90
2023-03-17T18:49:07.003Z,99.90
2023-03-17T18:51:34.304Z,99.90
2023-03-17T18:54:01.225Z,99.90
2023-03-17T18:56:29.650Z,99.90
2023-03-17T18:58:57.932Z,99.90
2023-03-17T19:01:25.836Z,99.90
2023-03-17T19:03:53.054Z,99.90
2023-03-17T19:06:22.808Z,99.90
2023-03-17T19:08:49.934Z,99.90
2023-03-17T19:11:20.340Z,99.90
2023-03-17T19:13:47.423Z,99.90
2023-03-17T19:16:15.169Z,99.90
2023-03-17T19:18:42.635Z,99.90
2023-03-17T19:21:10.425Z,99.90
2023-03-17T19:23:38.288Z,99.90
2023-03-17T19:26:06.110Z,99.90
2023-03-17T19:28:33.813Z,99.90
2023-03-17T19:31:01.216Z,99.90
2023-03-17T19:33:28.979Z,99.90
2023-03-17T19:35:58.623Z,99.90
2023-03-17T19:38:29.872Z,99.90
2023-03-17T19:40:56.959Z,99.90
2023-03-17T19:43:39.398Z,99.90
2023-03-17T19:46:07.865Z,99.90
2023-03-17T19:48:36.516Z,99.90
2023-03-17T19:51:03.593Z,99.90
2023-03-17T19:53:30.495Z,99.90
2023-03-17T19:55:58.092Z,99.90
2023-03-17T19:58:25.321Z,99.90
2023-03-17T20:00:52.933Z,99.90
2023-03-17T20:03:19.793Z,99.90
2023-03-17T20:05:46.852Z,99.90
2023-03-17T20:08:14.739Z,99.90
2023-03-17T20:10:41.958Z,99.90
2023-03-17T20:13:09.034Z,99.90
2023-03-17T20:15:36.775Z,99.90
2023-03-17T20:18:03.924Z,99.90
2023-03-17T20:20:32.335Z,99.90
2023-03-17T20:22:59.455Z,99.90
2023-03-17T20:25:27.113Z,99.90
2023-03-17T20:27:53.920Z,99.90
2023-03-17T20:30:20.942Z,99.90
2023-03-17T20:32:48.299Z,99.90
2023-03-17T20:35:15.499Z,99.90
2023-03-17T20:37:42.671Z,99.90
2023-03-17T20:40:10.884Z,99.90
2023-03-17T20:42:37.906Z,99.90
2023-03-17T20:45:05.593Z,99.90
2023-03-17T20:47:32.470Z,99.90
2023-03-17T20:50:00.175Z,99.90
2023-03-17T20:52:30.055Z,99.90
2023-03-17T20:54:59.474Z,99.90
2023-03-17T20:57:26.564Z,99.90
2023-03-17T20:59:53.434Z,99.90
2023-03-17T21:02:20.774Z,99.90
2023-03-17T21:04:48.952Z,99.90
2023-03-17T21:07:17.812Z,99.90
2023-03-17T21:09:46.727Z,99.90
2023-03-17T21:12:44.893Z,99.90
2023-03-17T21:15:12.974Z,99.90
2023-03-17T21:17:40.415Z,99.90
2023-03-17T21:20:09.569Z,99.90
2023-03-17T21:22:36.963Z,99.90
2023-03-17T21:25:05.101Z,99.90
2023-03-17T21:27:32.184Z,99.90
2023-03-17T21:29:59.024Z,99.90
2023-03-17T21:32:25.885Z,99.90
2023-03-17T21:34:54.399Z,99.90
2023-03-17T21:37:21.538Z,99.90
2023-03-17T21:39:48.536Z,99.90
2023-03-17T21:42:15.453Z,99.90
2023-03-17T21:44:42.401Z,99.90
2023-03-17T21:47:09.276Z,99.90
2023-03-17T21:49:36.116Z,99.90
2023-03-17T21:52:04.130Z,99.90
2023-03-17T21:54:31.575Z,99.90
2023-03-17T21:56:58.546Z,99.90
2023-03-17T21:59:25.496Z,99.90
2023-03-17T22:01:53.426Z,99.90
2023-03-17T22:04:20.276Z,99.90
2023-03-17T22:06:47.278Z,99.90
2023-03-17T22:09:15.647Z,99.90
2023-03-17T22:11:43.484Z,99.90
2023-03-17T22:14:13.321Z,99.90
2023-03-17T22:16:42.583Z,99.90
2023-03-17T22:20:09.078Z,99.90
2023-03-17T22:22:36.070Z,99.90
2023-03-17T22:25:23.349Z,99.90
2023-03-17T22:27:50.237Z,99.90
2023-03-17T22:30:19.570Z,99.90
2023-03-17T22:32:46.887Z,99.90
2023-03-17T22:35:19.405Z,99.90
2023-03-17T22:37:53.742Z,99.90
2023-03-17T22:40:20.603Z,99.90
2023-03-17T22:43:40.093Z,99.90
2023-03-17T22:46:07.459Z,99.90
2023-03-17T22:48:36.156Z,99.90
2023-03-17T22:51:05.774Z,99.90
2023-03-17T22:53:33.622Z,99.90
2023-03-17T22:56:00.903Z,99.90
2023-03-17T22:58:28.607Z,99.90
2023-03-17T23:00:56.277Z,99.90
2023-03-17T23:03:25.528Z,99.90
2023-03-17T23:05:55.123Z,99.90
2023-03-17T23:08:22.020Z,99.90
2023-03-17T23:10:53.560Z,99.90
2023-03-17T23:13:22.413Z,99.90
2023-03-17T23:15:49.529Z,99.90
2023-03-17T23:18:17.308Z,99.90
2023-03-17T23:20:44.373Z,99.90
2023-03-17T23:23:12.198Z,99.90
2023-03-17T23:25:39.451Z,99.90
2023-03-17T23:28:07.659Z,99.90
2023-03-17T23:30:35.796Z,99.90
2023-03-17T23:33:04.874Z,99.90
2023-03-17T23:35:33.349Z,99.90
2023-03-17T23:38:00.522Z,99.90
2023-03-17T23:40:27.331Z,99.90
2023-03-17T23:42:55.178Z,99.90
2023-03-17T23:45:25.045Z,99.90
2023-03-17T23:47:52.813Z,99.90
2023-03-17T23:50:21.159Z,99.90
2023-03-17T23:52:49.355Z,99.90
2023-03-17T23:55:17.028Z,99.90
2023-03-17T23:57:44.797Z,99.90
